Time;durP1;ratioP1;P1;durP2;ratioP2;P2;SDS_P1;SDS_P2;PMS_P1;PMS_P2;Temp;Humidity;BMP_temperature;BMP_pressure;BME280_temperature;BME280_humidity;BME280_pressure;Samples;Min_cycle;Max_cycle;Signal;HPM_P1;HPM_P2
2023/03/04 00:00:56;;;;;;;14.13;1.67;;;;;;;6.66;90.11;101077.66;5090474;28;20075;-66
2023/03/04 00:03:22;;;;;;;13.65;1.85;;;;;;;6.61;89.89;101084.50;5091813;28;20036;-66
2023/03/04 00:05:48;;;;;;;9.90;1.30;;;;;;;6.56;89.63;101079.66;5089789;28;20372;-66
2023/03/04 00:08:13;;;;;;;20.15;2.40;;;;;;;6.35;89.34;101064.06;5104967;28;20024;-66
2023/03/04 00:10:38;;;;;;;11.98;1.63;;;;;;;6.41;89.41;101076.78;5110777;28;20034;-66
2023/03/04 00:13:04;;;;;;;12.20;1.27;;;;;;;6.28;89.73;101063.91;5111674;28;20036;-66
2023/03/04 00:15:29;;;;;;;14.23;1.40;;;;;;;6.29;89.47;101083.44;5111482;28;20023;-66
2023/03/04 00:17:55;;;;;;;9.00;1.17;;;;;;;6.07;89.94;101072.38;5111951;28;20020;-66
2023/03/04 00:20:20;;;;;;;10.13;1.08;;;;;;;6.12;89.28;101071.88;5065136;28;1332838;-65
2023/03/04 00:22:46;;;;;;;5.55;0.80;;;;;;;6.24;87.55;101075.09;5112443;28;20112;-66
2023/03/04 00:25:11;;;;;;;3.75;0.60;;;;;;;6.22;85.82;101072.56;5111921;28;20386;-66
2023/03/04 00:27:37;;;;;;;4.28;0.60;;;;;;;6.28;84.66;101073.75;5112738;28;20505;-65
2023/03/04 00:30:04;;;;;;;6.47;1.00;;;;;;;6.28;82.37;101076.44;5113209;28;20520;-66
2023/03/04 00:32:29;;;;;;;4.40;0.90;;;;;;;6.38;79.09;101082.47;5113718;28;20176;-66
2023/03/04 00:34:54;;;;;;;7.22;0.93;;;;;;;6.42;77.33;101086.47;5111617;28;20119;-66
2023/03/04 00:37:20;;;;;;;3.80;0.50;;;;;;;6.31;75.85;101084.94;5113513;28;20113;-65
2023/03/04 00:39:45;;;;;;;6.70;0.77;;;;;;;6.22;73.13;101087.78;5126673;28;20028;-66
2023/03/04 00:42:11;;;;;;;6.93;1.15;;;;;;;6.30;72.07;101069.09;5124641;28;20034;-66
2023/03/04 00:44:36;;;;;;;2.10;0.45;;;;;;;6.47;70.76;101076.13;5115333;28;20033;-66
2023/03/04 00:47:01;;;;;;;3.92;0.52;;;;;;;6.48;69.57;101072.44;5115692;28;20043;-66
2023/03/04 00:49:27;;;;;;;4.35;0.47;;;;;;;6.47;67.34;101078.81;5111600;28;20073;-66
2023/03/04 00:51:52;;;;;;;1.35;0.40;;;;;;;6.51;66.16;101082.81;5112428;28;20429;-66
2023/03/04 00:54:17;;;;;;;3.63;0.45;;;;;;;6.40;64.81;101093.84;5112979;28;20405;-65
2023/03/04 00:56:43;;;;;;;2.47;0.50;;;;;;;6.30;64.45;101096.66;5114632;28;20031;-65
2023/03/04 00:59:08;;;;;;;1.52;0.40;;;;;;;6.39;62.92;101097.50;5111838;28;20027;-65
2023/03/04 01:01:34;;;;;;;1.88;0.38;;;;;;;6.41;62.35;101108.03;5112293;28;20470;-66
2023/03/04 01:03:59;;;;;;;1.67;0.40;;;;;;;6.35;61.90;101101.50;5110081;28;20024;-65
2023/03/04 01:06:24;;;;;;;2.22;0.50;;;;;;;6.34;62.19;101094.47;5111077;28;20031;-65
2023/03/04 01:08:50;;;;;;;3.53;0.63;;;;;;;6.45;62.04;101112.03;5111671;28;20023;-65
2023/03/04 01:11:15;;;;;;;1.45;0.43;;;;;;;6.31;61.23;101110.84;5111778;28;20027;-65
2023/03/04 01:13:41;;;;;;;1.85;0.40;;;;;;;6.45;60.96;101115.53;5112094;28;20030;-66
2023/03/04 01:16:06;;;;;;;0.68;0.30;;;;;;;6.51;60.83;101112.22;5111850;28;20672;-66
2023/03/04 01:18:32;;;;;;;1.60;0.40;;;;;;;6.42;60.33;101110.53;5115601;28;20027;-65
2023/03/04 01:20:58;;;;;;;1.05;0.38;;;;;;;6.44;60.64;101118.41;5115736;28;20035;-65
2023/03/04 01:23:24;;;;;;;2.00;0.40;;;;;;;6.47;60.79;101123.41;5115183;28;20137;-65
2023/03/04 01:25:49;;;;;;;3.22;0.52;;;;;;;6.48;61.44;101114.38;5115129;28;20408;-65
2023/03/04 01:28:14;;;;;;;1.65;0.30;;;;;;;6.40;61.13;101109.03;5115624;28;20028;-65
2023/03/04 01:30:40;;;;;;;2.35;0.63;;;;;;;6.33;61.69;101122.22;5114463;28;20049;-65
2023/03/04 01:33:05;;;;;;;1.33;0.40;;;;;;;6.30;62.16;101122.53;5113842;28;20508;-66
2023/03/04 01:35:31;;;;;;;1.50;0.40;;;;;;;6.33;62.63;101130.25;5114967;28;20470;-65
2023/03/04 01:37:56;;;;;;;2.13;0.40;;;;;;;6.31;62.18;101130.38;5116279;28;20034;-65
2023/03/04 01:40:22;;;;;;;1.50;0.40;;;;;;;6.23;62.18;101132.22;5117071;28;20038;-65
2023/03/04 01:42:47;;;;;;;3.33;0.50;;;;;;;6.13;62.64;101136.88;5116459;28;20042;-65
2023/03/04 01:45:18;;;;;;;2.08;0.40;;;;;;;6.03;63.34;101142.34;5124154;28;20526;-64
2023/03/04 01:47:47;;;;;;;1.55;0.40;;;;;;;6.01;63.13;101147.00;5117132;28;20401;-65
2023/03/04 01:50:34;;;;;;;1.15;0.32;;;;;;;5.94;63.27;101149.47;5115149;28;20110;-65
2023/03/04 01:53:00;;;;;;;1.13;0.28;;;;;;;5.76;63.69;101143.34;5115592;28;20140;-65
2023/03/04 01:55:28;;;;;;;2.13;0.30;;;;;;;5.59;64.73;101148.56;5115095;28;20028;-65
2023/03/04 01:57:54;;;;;;;2.88;0.40;;;;;;;5.31;65.03;101155.94;5115289;28;20028;-65
2023/03/04 02:00:32;;;;;;;2.80;0.55;;;;;;;5.19;64.88;101163.31;5125292;28;20084;-66
2023/03/04 02:03:01;;;;;;;1.98;0.52;;;;;;;5.21;64.84;101162.34;5131492;28;20027;-66
2023/03/04 02:05:27;;;;;;;2.92;0.30;;;;;;;5.17;64.77;101161.84;5117580;28;20308;-65
2023/03/04 02:07:54;;;;;;;1.00;0.40;;;;;;;5.07;64.87;101164.59;5114982;28;20055;-65
2023/03/04 02:10:20;;;;;;;1.65;0.40;;;;;;;4.93;65.15;101160.66;5114039;28;20122;-65
2023/03/04 02:12:46;;;;;;;2.30;0.30;;;;;;;4.87;65.96;101163.91;5112919;28;20498;-65
2023/03/04 02:15:12;;;;;;;1.17;0.30;;;;;;;4.65;65.94;101151.88;5114708;28;20466;-65
2023/03/04 02:17:37;;;;;;;1.90;0.40;;;;;;;4.65;66.71;101175.88;5113300;28;20444;-65
2023/03/04 02:20:08;;;;;;;3.78;0.60;;;;;;;4.60;66.76;101172.84;5113844;28;20048;-65
2023/03/04 02:22:40;;;;;;;2.05;0.52;;;;;;;4.60;66.32;101178.16;5114541;28;20490;-65
2023/03/04 02:25:12;;;;;;;1.98;0.20;;;;;;;4.54;67.03;101178.75;5112530;28;20036;-65
2023/03/04 02:27:37;;;;;;;1.75;0.40;;;;;;;4.40;67.22;101169.47;5122830;28;20019;-65
2023/03/04 02:30:03;;;;;;;1.90;0.30;;;;;;;4.45;67.00;101177.00;5131708;28;20024;-65
2023/03/04 02:32:28;;;;;;;2.30;0.30;;;;;;;4.50;66.69;101168.53;5117669;28;20490;-65
2023/03/04 02:34:55;;;;;;;1.35;0.30;;;;;;;4.46;66.90;101176.81;5114404;28;20027;-65
2023/03/04 02:37:20;;;;;;;2.85;0.40;;;;;;;4.44;67.75;101175.31;5112243;28;20044;-65
2023/03/04 02:39:48;;;;;;;3.67;0.52;;;;;;;4.37;67.38;101174.22;5112632;28;20387;-65
2023/03/04 02:42:14;;;;;;;2.80;0.50;;;;;;;4.43;67.65;101179.78;5113107;28;20475;-65
2023/03/04 02:44:46;;;;;;;1.15;0.30;;;;;;;4.47;67.60;101185.69;5112887;28;20065;-65
2023/03/04 02:47:13;;;;;;;3.47;0.40;;;;;;;4.44;67.93;101186.81;5117543;28;20378;-65
2023/03/04 02:49:40;;;;;;;2.22;0.30;;;;;;;4.40;68.17;101190.78;5114674;28;20035;-65
2023/03/04 02:52:12;;;;;;;0.50;0.20;;;;;;;4.42;68.64;101196.78;5113443;28;20041;-66
2023/03/04 02:54:38;;;;;;;1.05;0.20;;;;;;;4.38;69.08;101202.56;5113093;28;20529;-65
2023/03/04 02:57:06;;;;;;;1.80;0.30;;;;;;;4.24;68.70;101191.41;5113583;28;20121;-65
2023/03/04 02:59:32;;;;;;;1.27;0.40;;;;;;;4.46;66.38;101194.66;5110850;28;20031;-65
2023/03/04 03:01:57;;;;;;;1.23;0.20;;;;;;;4.58;64.68;101198.78;5113248;28;20028;-65
2023/03/04 03:04:24;;;;;;;2.35;0.30;;;;;;;4.83;64.75;101201.69;5113039;28;20027;-65
2023/03/04 03:06:50;;;;;;;1.00;0.40;;;;;;;4.67;65.19;101205.88;5112653;28;20035;-65
2023/03/04 03:09:16;;;;;;;1.05;0.30;;;;;;;4.37;60.05;101152.91;5113215;28;20028;-65
2023/03/04 03:11:41;;;;;;;1.05;0.30;;;;;;;4.79;57.92;101213.66;5113190;28;20024;-65
2023/03/04 03:14:07;;;;;;;1.95;0.38;;;;;;;4.93;56.39;101215.78;5113259;28;20110;-65
2023/03/04 03:16:33;;;;;;;0.63;0.10;;;;;;;4.78;54.19;101203.97;5113721;28;20177;-65
2023/03/04 03:18:58;;;;;;;1.42;0.20;;;;;;;4.99;53.43;101209.84;5112220;28;20128;-65
2023/03/04 03:21:24;;;;;;;0.95;0.20;;;;;;;4.71;51.25;101215.25;5112435;28;20478;-65
2023/03/04 03:23:49;;;;;;;1.27;0.40;;;;;;;4.46;48.07;101230.13;5126318;28;20116;-64
2023/03/04 03:26:16;;;;;;;0.70;0.17;;;;;;;4.57;49.16;101201.59;5109647;28;20024;-64
2023/03/04 03:28:41;;;;;;;0.55;0.17;;;;;;;4.45;48.08;101232.94;5112930;28;20062;-65
2023/03/04 03:31:07;;;;;;;0.82;0.20;;;;;;;4.37;47.77;101224.84;5129365;27;20055;-64
2023/03/04 03:33:32;;;;;;;1.23;0.20;;;;;;;4.41;48.81;101235.06;5113728;28;20019;-64
2023/03/04 03:35:58;;;;;;;0.60;0.20;;;;;;;4.38;48.29;101230.03;5112203;28;20039;-65
2023/03/04 03:38:24;;;;;;;0.28;0.10;;;;;;;4.46;48.49;101231.94;5113098;28;20957;-65
2023/03/04 03:40:50;;;;;;;1.15;0.30;;;;;;;4.37;47.21;101240.81;5112645;28;20024;-65
2023/03/04 03:43:15;;;;;;;3.35;0.20;;;;;;;4.34;47.03;101236.66;5112973;28;20059;-65
2023/03/04 03:45:40;;;;;;;1.02;0.15;;;;;;;4.41;48.26;101243.06;5113135;28;20312;-65
2023/03/04 03:48:06;;;;;;;0.40;0.20;;;;;;;4.41;46.57;101239.56;5112731;28;20042;-65
2023/03/04 03:50:32;;;;;;;2.00;0.30;;;;;;;4.18;45.30;101234.63;5112869;28;20031;-65
2023/03/04 03:52:57;;;;;;;1.23;0.20;;;;;;;4.17;45.16;101235.63;5112397;28;20507;-65
2023/03/04 03:55:23;;;;;;;2.58;0.20;;;;;;;4.16;44.96;101252.56;5118133;28;20430;-64
2023/03/04 03:57:48;;;;;;;3.38;0.20;;;;;;;4.12;44.96;101242.34;5117588;28;20038;-65
2023/03/04 04:00:15;;;;;;;0.90;0.20;;;;;;;4.10;44.22;101253.13;5112808;28;20039;-65
2023/03/04 04:02:41;;;;;;;2.08;0.20;;;;;;;4.13;43.96;101249.34;5112126;28;20023;-65
2023/03/04 04:05:08;;;;;;;0.47;0.20;;;;;;;4.03;43.12;101252.03;5112525;28;20072;-65
2023/03/04 04:07:34;;;;;;;3.20;0.22;;;;;;;4.04;44.17;101250.22;5111910;28;20072;-64
2023/03/04 04:10:00;;;;;;;1.50;0.20;;;;;;;4.11;45.16;101232.69;5112243;28;20366;-65
2023/03/04 04:12:25;;;;;;;0.63;0.20;;;;;;;3.73;42.24;101245.13;5128470;28;20023;-65
2023/03/04 04:14:50;;;;;;;0.85;0.20;;;;;;;3.79;42.49;101255.22;5112110;28;20445;-64
2023/03/04 04:17:16;;;;;;;0.88;0.20;;;;;;;3.69;42.06;101263.22;5112140;28;20394;-65
2023/03/04 04:19:41;;;;;;;1.65;0.40;;;;;;;3.93;42.64;101251.25;5111248;28;20478;-65
2023/03/04 04:22:11;;;;;;;0.98;0.20;;;;;;;3.89;39.92;101282.66;5111675;28;20039;-65
2023/03/04 04:24:36;;;;;;;0.10;0.00;;;;;;;3.89;41.34;101255.19;5109923;28;20028;-65
2023/03/04 04:27:03;;;;;;;2.42;0.40;;;;;;;3.60;39.79;101237.44;5111871;28;20130;-65
2023/03/04 04:29:29;;;;;;;0.30;0.10;;;;;;;3.78;40.65;101274.84;5111852;28;20035;-65
2023/03/04 04:31:54;;;;;;;0.80;0.20;;;;;;;3.77;40.75;101230.53;5112052;28;20023;-65
2023/03/04 04:34:20;;;;;;;0.70;0.20;;;;;;;3.67;38.90;101241.22;5127107;27;20367;-65
2023/03/04 04:36:45;;;;;;;2.85;0.40;;;;;;;3.44;39.07;101221.22;5111780;28;20254;-65
2023/03/04 04:39:11;;;;;;;0.93;0.30;;;;;;;3.60;38.89;101247.25;5110947;28;20032;-65
2023/03/04 04:41:41;;;;;;;3.35;0.10;;;;;;;3.75;38.20;101238.69;5112745;28;20032;-65
2023/03/04 04:44:08;;;;;;;1.25;0.20;;;;;;;3.60;38.50;101261.41;5110918;28;20453;-65
2023/03/04 04:46:34;;;;;;;0.60;0.20;;;;;;;3.60;37.41;101265.88;5116250;28;20024;-65
2023/03/04 04:49:00;;;;;;;0.95;0.10;;;;;;;3.71;38.24;101260.44;5120416;28;20107;-64
2023/03/04 04:51:25;;;;;;;2.95;0.50;;;;;;;3.62;38.40;101262.09;5115036;28;20373;-65
2023/03/04 04:53:50;;;;;;;2.20;0.25;;;;;;;3.61;37.75;101267.56;5115924;28;20089;-65
2023/03/04 04:56:19;;;;;;;1.92;0.30;;;;;;;3.69;40.46;101271.19;5115854;28;20047;-64
2023/03/04 04:58:46;;;;;;;1.23;0.30;;;;;;;3.49;37.91;101267.72;5115434;28;20051;-65
2023/03/04 05:01:11;;;;;;;1.15;0.20;;;;;;;3.61;38.48;101279.06;5115452;28;20035;-65
2023/03/04 05:03:38;;;;;;;1.52;0.20;;;;;;;3.67;39.97;101275.81;5115850;27;20110;-65
2023/03/04 05:06:06;;;;;;;1.60;0.20;;;;;;;3.94;40.72;101279.53;5116019;28;20024;-64
2023/03/04 05:08:32;;;;;;;0.75;0.10;;;;;;;3.68;39.48;101298.81;5115528;28;20031;-64
2023/03/04 05:10:57;;;;;;;2.55;0.20;;;;;;;3.77;39.40;101291.75;5115612;28;20035;-65
2023/03/04 05:13:23;;;;;;;1.52;0.30;;;;;;;3.69;39.92;101292.50;5115532;28;20020;-64
2023/03/04 05:15:54;;;;;;;1.30;0.32;;;;;;;3.73;40.92;101301.88;5115630;28;20433;-64
2023/03/04 05:18:20;;;;;;;1.80;0.20;;;;;;;3.58;39.30;101292.66;5115695;28;20046;-64
2023/03/04 05:20:51;;;;;;;1.65;0.20;;;;;;;3.59;39.85;101299.66;5115291;28;20120;-64
2023/03/04 05:23:16;;;;;;;1.05;0.13;;;;;;;3.76;41.45;101308.72;5115395;28;20023;-65
2023/03/04 05:25:42;;;;;;;1.20;0.20;;;;;;;3.95;41.40;101322.00;5115215;28;20046;-65
2023/03/04 05:28:11;;;;;;;0.65;0.10;;;;;;;3.79;40.16;101328.91;5114994;28;20066;-65
2023/03/04 05:30:38;;;;;;;2.60;0.40;;;;;;;3.91;40.14;101317.13;5114597;28;20462;-65
2023/03/04 05:33:03;;;;;;;2.38;0.20;;;;;;;3.94;40.45;101338.97;5114528;27;20024;-65
2023/03/04 05:35:29;;;;;;;1.70;0.28;;;;;;;3.59;39.85;101336.06;5114760;28;20027;-65
2023/03/04 05:37:54;;;;;;;0.68;0.10;;;;;;;3.62;40.75;101338.44;5114962;28;20448;-65
2023/03/04 05:40:19;;;;;;;1.00;0.20;;;;;;;3.80;40.51;101351.88;5113666;28;20038;-65
2023/03/04 05:42:45;;;;;;;1.30;0.20;;;;;;;3.62;39.93;101349.94;5114902;28;20106;-64
2023/03/04 05:45:10;;;;;;;0.47;0.10;;;;;;;3.62;39.90;101347.25;5114533;28;20028;-65
2023/03/04 05:47:36;;;;;;;1.70;0.10;;;;;;;3.68;40.69;101346.72;5114589;28;20023;-65
2023/03/04 05:50:01;;;;;;;2.45;0.25;;;;;;;3.45;40.95;101353.28;5113247;28;20024;-65
2023/03/04 05:52:27;;;;;;;1.85;0.30;;;;;;;3.44;39.72;101348.94;5114350;28;20043;-65
2023/03/04 05:54:52;;;;;;;0.47;0.13;;;;;;;3.65;40.67;101368.28;5114121;28;20110;-65
2023/03/04 05:57:17;;;;;;;2.63;0.30;;;;;;;3.47;40.83;101360.13;5113580;28;20031;-64
2023/03/04 05:59:43;;;;;;;2.42;0.28;;;;;;;3.49;42.18;101362.66;5112436;28;20031;-65
2023/03/04 06:02:08;;;;;;;1.23;0.20;;;;;;;3.61;41.82;101366.88;5113675;28;20453;-65
2023/03/04 06:04:34;;;;;;;0.90;0.20;;;;;;;3.71;41.04;101370.38;5114184;28;20034;-65
2023/03/04 06:06:59;;;;;;;1.40;0.40;;;;;;;3.58;40.57;101364.50;5113974;27;20028;-64
2023/03/04 06:09:25;;;;;;;1.48;0.40;;;;;;;3.69;41.25;101372.34;5115195;28;20027;-65
2023/03/04 06:11:50;;;;;;;0.80;0.20;;;;;;;3.72;41.23;101377.38;5118823;28;20115;-65
2023/03/04 06:14:15;;;;;;;1.20;0.25;;;;;;;3.79;42.24;101384.81;5117695;27;20118;-65
2023/03/04 06:16:41;;;;;;;0.52;0.10;;;;;;;3.94;41.57;101386.03;5119609;28;20076;-65
2023/03/04 06:19:06;;;;;;;1.60;0.10;;;;;;;3.84;41.82;101391.41;5117905;28;20180;-65
2023/03/04 06:21:32;;;;;;;1.33;0.25;;;;;;;3.68;41.04;101389.28;5116477;28;20032;-65
2023/03/04 06:23:57;;;;;;;0.55;0.20;;;;;;;3.61;41.26;101400.63;5114573;28;20495;-64
2023/03/04 06:26:22;;;;;;;1.25;0.30;;;;;;;3.73;41.05;101395.03;5113454;28;20055;-65
2023/03/04 06:28:48;;;;;;;2.20;0.38;;;;;;;3.81;40.46;101401.47;5114507;28;20463;-65
2023/03/04 06:31:13;;;;;;;1.65;0.32;;;;;;;3.62;40.29;101408.47;5114401;28;20100;-65
2023/03/04 06:33:39;;;;;;;0.82;0.20;;;;;;;3.72;40.09;101409.31;5129723;27;20115;-65
2023/03/04 06:36:05;;;;;;;0.60;0.20;;;;;;;3.78;39.72;101413.25;5114067;28;20458;-65
2023/03/04 06:38:30;;;;;;;1.58;0.13;;;;;;;3.55;39.40;101419.81;5112863;28;20035;-64
2023/03/04 06:40:55;;;;;;;0.47;0.08;;;;;;;3.62;40.09;101429.75;5113000;28;20043;-65
2023/03/04 06:43:21;;;;;;;2.47;0.40;;;;;;;3.74;39.04;101426.00;5113893;28;20085;-65
2023/03/04 06:45:46;;;;;;;0.65;0.20;;;;;;;3.72;39.28;101416.47;5112768;28;20058;-65
2023/03/04 06:48:12;;;;;;;0.93;0.15;;;;;;;3.80;38.96;101421.09;5113517;28;20474;-65
2023/03/04 06:50:39;;;;;;;0.55;0.10;;;;;;;3.77;39.59;101416.88;5113569;28;20061;-65
2023/03/04 06:53:05;;;;;;;1.52;0.32;;;;;;;3.89;40.28;101420.25;5113500;28;20469;-65
2023/03/04 06:55:30;;;;;;;1.48;0.32;;;;;;;3.58;39.78;101439.00;5113337;28;20058;-66
2023/03/04 06:57:55;;;;;;;1.33;0.20;;;;;;;3.68;40.70;101444.34;5113462;28;20043;-65
2023/03/04 07:00:22;;;;;;;1.38;0.10;;;;;;;3.53;40.47;101434.09;5112204;28;20071;-65
2023/03/04 07:02:48;;;;;;;0.70;0.17;;;;;;;3.56;39.47;101430.31;5113483;28;20059;-65
2023/03/04 07:05:13;;;;;;;2.03;0.50;;;;;;;3.27;38.66;101452.38;5113200;28;20054;-64
2023/03/04 07:07:39;;;;;;;1.75;0.30;;;;;;;3.27;38.65;101441.72;5128160;28;20019;-64
2023/03/04 07:10:05;;;;;;;1.15;0.20;;;;;;;3.22;38.18;101443.13;5139793;27;20031;-71
2023/03/04 07:12:30;;;;;;;0.93;0.15;;;;;;;3.44;38.68;101448.19;5114454;28;20019;-64
2023/03/04 07:14:56;;;;;;;1.33;0.30;;;;;;;3.27;38.68;101435.56;5116567;28;20119;-65
2023/03/04 07:17:21;;;;;;;2.22;0.20;;;;;;;3.49;38.77;101434.50;5113109;28;20084;-64
2023/03/04 07:19:46;;;;;;;2.50;0.30;;;;;;;3.39;38.81;101446.94;5112513;28;20048;-64
2023/03/04 07:22:12;;;;;;;1.30;0.13;;;;;;;3.44;38.61;101442.03;5109683;28;20127;-64
2023/03/04 07:24:37;;;;;;;0.65;0.20;;;;;;;3.41;38.80;101467.13;5115550;28;20104;-65
2023/03/04 07:27:03;;;;;;;1.02;0.22;;;;;;;3.45;38.64;101446.41;5113200;28;20115;-66
2023/03/04 07:29:28;;;;;;;0.82;0.20;;;;;;;3.16;37.93;101486.22;5112179;28;20035;-68
2023/03/04 07:31:54;;;;;;;0.52;0.03;;;;;;;3.32;38.07;101464.44;5111465;28;20106;-66
2023/03/04 07:34:20;;;;;;;0.50;0.10;;;;;;;3.12;37.57;101431.63;5112403;27;20135;-65
2023/03/04 07:36:45;;;;;;;3.03;0.30;;;;;;;3.20;37.07;101474.31;5118397;28;20053;-66
2023/03/04 07:39:14;;;;;;;1.05;0.28;;;;;;;3.25;37.33;101478.28;5117886;28;20032;-65
2023/03/04 07:41:40;;;;;;;0.88;0.22;;;;;;;3.33;37.75;101448.31;5112117;28;20031;-64
2023/03/04 07:44:07;;;;;;;1.95;0.20;;;;;;;3.29;37.48;101492.97;5111917;28;20108;-64
2023/03/04 07:46:33;;;;;;;0.95;0.20;;;;;;;3.23;38.02;101492.66;5110286;28;20099;-65
2023/03/04 07:48:59;;;;;;;2.15;0.40;;;;;;;3.34;38.10;101491.72;5110511;28;20027;-64
2023/03/04 07:51:26;;;;;;;1.23;0.20;;;;;;;3.36;37.67;101489.78;5111772;28;20028;-64
2023/03/04 07:53:55;;;;;;;4.43;0.32;;;;;;;3.52;37.04;101498.94;5110592;28;20054;-64
2023/03/04 07:56:23;;;;;;;1.48;0.20;;;;;;;3.60;37.82;101505.38;5111929;28;20081;-65
2023/03/04 07:58:52;;;;;;;2.55;0.30;;;;;;;3.69;37.38;101517.88;5097572;28;20032;-65
2023/03/04 08:01:29;;;;;;;0.93;0.30;;;;;;;3.91;37.94;101503.50;5098277;28;20042;-64
2023/03/04 08:03:55;;;;;;;0.52;0.10;;;;;;;3.30;37.28;101436.13;5094552;28;20126;-65
2023/03/04 08:06:21;;;;;;;1.15;0.20;;;;;;;3.90;38.15;101485.81;5103998;28;20088;-65
2023/03/04 08:08:48;;;;;;;0.10;0.03;;;;;;;3.79;37.16;101494.78;5103352;28;20023;-65
2023/03/04 08:11:17;;;;;;;1.65;0.20;;;;;;;3.94;37.82;101520.03;5098620;28;20019;-64
2023/03/04 08:13:43;;;;;;;0.90;0.10;;;;;;;3.90;37.51;101512.44;5109581;28;20024;-64
2023/03/04 08:16:14;;;;;;;1.13;0.32;;;;;;;4.27;37.35;101519.75;5097885;28;20050;-65
2023/03/04 08:18:39;;;;;;;0.47;0.20;;;;;;;4.20;37.30;101514.97;5102135;28;20028;-65
2023/03/04 08:21:08;;;;;;;1.13;0.30;;;;;;;4.22;36.27;101486.38;5103804;28;20114;-65
2023/03/04 08:23:34;;;;;;;1.48;0.15;;;;;;;3.88;36.21;101471.81;5094619;28;20024;-64
2023/03/04 08:26:05;;;;;;;0.65;0.20;;;;;;;4.35;36.43;101517.25;5106211;28;20019;-65
2023/03/04 08:28:31;;;;;;;1.10;0.10;;;;;;;4.37;36.92;101531.25;5103113;28;20027;-65
2023/03/04 08:30:56;;;;;;;0.80;0.13;;;;;;;4.34;37.34;101524.41;5119680;27;20104;-64
2023/03/04 08:33:22;;;;;;;0.20;0.10;;;;;;;4.43;36.86;101530.69;5108846;28;20035;-64
2023/03/04 08:35:47;;;;;;;1.67;0.28;;;;;;;4.10;36.25;101532.78;5097337;28;20035;-64
2023/03/04 08:38:13;;;;;;;0.90;0.10;;;;;;;4.15;36.09;101532.38;5108535;28;20039;-64
2023/03/04 08:40:38;;;;;;;0.80;0.30;;;;;;;4.34;35.90;101535.06;5102785;28;20032;-64
2023/03/04 08:43:04;;;;;;;0.65;0.10;;;;;;;3.98;36.08;101588.00;5100098;28;20035;-65
2023/03/04 08:45:29;;;;;;;1.20;0.30;;;;;;;3.95;34.61;101507.56;5110187;28;20024;-64
2023/03/04 08:47:56;;;;;;;0.70;0.20;;;;;;;3.93;34.15;101528.13;5097845;28;20027;-64
2023/03/04 08:50:22;;;;;;;0.75;0.20;;;;;;;3.94;34.57;101540.47;5107433;28;20028;-64
2023/03/04 08:52:47;;;;;;;1.63;0.30;;;;;;;4.13;34.86;101523.69;5105362;28;20038;-64
2023/03/04 08:55:12;;;;;;;1.95;0.20;;;;;;;4.18;34.52;101530.28;5102243;28;20028;-66
2023/03/04 08:57:38;;;;;;;0.30;0.10;;;;;;;4.28;35.37;101569.41;5115810;28;20114;-64
2023/03/04 09:00:04;;;;;;;0.65;0.10;;;;;;;4.38;35.31;101554.25;5109463;28;20024;-71
2023/03/04 09:02:29;;;;;;;0.77;0.32;;;;;;;4.34;35.04;101539.50;5103109;28;20101;-64
2023/03/04 09:04:54;;;;;;;0.85;0.32;;;;;;;4.24;34.37;101575.00;5095119;28;20394;-64
2023/03/04 09:07:20;;;;;;;1.35;0.25;;;;;;;4.35;34.61;101543.88;5096208;28;20036;-64
2023/03/04 09:09:45;;;;;;;1.27;0.30;;;;;;;4.23;33.57;101520.03;5093519;28;20016;-65
2023/03/04 09:12:11;;;;;;;0.85;0.30;;;;;;;4.23;33.30;101537.84;5093832;28;20486;-65
2023/03/04 09:14:36;;;;;;;0.90;0.20;;;;;;;4.21;33.78;101542.47;5095058;28;20161;-64
2023/03/04 09:17:03;;;;;;;1.33;0.20;;;;;;;4.21;33.55;101542.47;5094515;28;20099;-64
2023/03/04 09:19:29;;;;;;;1.10;0.30;;;;;;;4.31;34.11;101547.81;5094854;28;20055;-64
2023/03/04 09:21:54;;;;;;;0.93;0.30;;;;;;;4.27;33.48;101568.53;5093995;28;20394;-64
2023/03/04 09:24:20;;;;;;;0.50;0.10;;;;;;;3.95;32.95;101544.84;5094362;28;20039;-64
2023/03/04 09:26:50;;;;;;;0.70;0.22;;;;;;;4.11;33.62;101544.31;5095107;28;20030;-64
2023/03/04 09:29:16;;;;;;;1.60;0.30;;;;;;;4.17;32.31;101523.28;5093007;28;20043;-64
2023/03/04 09:31:41;;;;;;;0.80;0.20;;;;;;;4.34;32.75;101520.88;5094919;28;20032;-64
2023/03/04 09:34:07;;;;;;;0.60;0.10;;;;;;;4.54;33.59;101533.22;5093737;28;20374;-65
2023/03/04 09:36:32;;;;;;;0.80;0.28;;;;;;;4.22;32.92;101547.66;5094735;28;20111;-64
2023/03/04 09:39:02;;;;;;;1.17;0.20;;;;;;;4.32;33.21;101515.69;5093701;28;20047;-64
2023/03/04 09:41:45;;;;;;;1.25;0.38;;;;;;;4.37;33.86;101531.25;5094809;28;20020;-64
2023/03/04 09:44:27;;;;;;;0.90;0.22;;;;;;;4.26;34.08;101534.06;5093752;28;20023;-63
2023/03/04 09:46:57;;;;;;;2.00;0.20;;;;;;;4.24;35.10;101532.38;5094430;28;20021;-63
2023/03/04 09:49:23;;;;;;;1.27;0.38;;;;;;;4.39;34.83;101516.81;5092537;28;20050;-63
2023/03/04 09:52:03;;;;;;;0.70;0.30;;;;;;;4.47;34.04;101519.63;5094149;28;20085;-64
2023/03/04 09:55:00;;;;;;;0.93;0.30;;;;;;;4.59;33.69;101506.97;5093815;28;20047;-63
2023/03/04 09:58:01;;;;;;;1.13;0.30;;;;;;;4.41;33.54;101540.66;5095053;28;20039;-64
2023/03/04 10:00:59;;;;;;;2.05;0.30;;;;;;;4.32;33.15;101549.50;5093981;28;20012;-64
2023/03/04 10:03:41;;;;;;;0.52;0.10;;;;;;;4.74;33.10;101533.19;5094823;28;20024;-64
2023/03/04 10:06:12;;;;;;;0.63;0.10;;;;;;;4.47;33.07;101530.28;5094357;28;20094;-64
2023/03/04 10:09:09;;;;;;;0.63;0.10;;;;;;;4.77;33.10;101519.53;5093871;28;20049;-64
2023/03/04 10:11:41;;;;;;;2.15;0.20;;;;;;;4.46;32.65;101525.06;5089016;28;20040;-64
2023/03/04 10:14:22;;;;;;;0.85;0.20;;;;;;;4.88;33.15;101519.41;5094290;28;20165;-64
2023/03/04 10:16:50;;;;;;;0.52;0.20;;;;;;;4.72;32.47;101520.00;5094156;28;20032;-64
2023/03/04 10:19:43;;;;;;;0.55;0.20;;;;;;;4.55;33.86;101504.72;5093450;28;20072;-65
2023/03/04 10:22:30;;;;;;;1.95;0.40;;;;;;;4.42;35.00;101519.19;5101231;28;20093;-64
2023/03/04 10:25:01;;;;;;;2.22;0.20;;;;;;;4.52;35.09;101513.00;5094569;28;20046;-63
2023/03/04 10:27:28;;;;;;;0.88;0.20;;;;;;;4.49;33.12;101503.47;5093652;28;20478;-64
2023/03/04 10:29:57;;;;;;;2.25;0.30;;;;;;;4.52;35.27;101513.84;5094033;28;20019;-63
2023/03/04 10:32:22;;;;;;;1.17;0.32;;;;;;;4.33;34.87;101500.53;5091890;28;20024;-64
2023/03/04 10:34:48;;;;;;;1.40;0.20;;;;;;;4.22;35.28;101521.03;5093223;28;20036;-64
2023/03/04 10:37:14;;;;;;;1.15;0.30;;;;;;;4.13;34.48;101543.16;5091675;28;20031;-64
2023/03/04 10:39:43;;;;;;;0.50;0.20;;;;;;;4.18;33.66;101529.44;5092658;28;20590;-65
2023/03/04 10:42:15;;;;;;;1.63;0.20;;;;;;;4.29;34.47;101512.47;5092431;28;20098;-65
2023/03/04 10:44:43;;;;;;;0.55;0.20;;;;;;;4.63;33.24;101513.69;5091235;28;20016;-64
2023/03/04 10:47:10;;;;;;;1.15;0.30;;;;;;;4.82;33.50;101503.97;5092461;28;20024;-65
2023/03/04 10:49:49;;;;;;;1.70;0.30;;;;;;;4.93;34.52;101507.31;5092402;28;20066;-63
2023/03/04 10:52:29;;;;;;;1.52;0.40;;;;;;;4.78;35.21;101497.25;5092995;28;20024;-63
2023/03/04 10:54:58;;;;;;;2.03;0.45;;;;;;;4.74;33.89;101519.88;5092670;28;20038;-63
2023/03/04 10:57:37;;;;;;;1.25;0.20;;;;;;;4.50;33.10;101531.78;5112138;28;20004;-71
2023/03/04 11:00:17;;;;;;;0.80;0.30;;;;;;;4.58;33.94;101531.94;5097140;28;20020;-64
2023/03/04 11:02:47;;;;;;;1.42;0.20;;;;;;;4.42;33.12;101510.34;5092653;28;20118;-63
2023/03/04 11:05:18;;;;;;;0.93;0.30;;;;;;;4.38;32.37;101495.66;5092384;28;20113;-63
2023/03/04 11:07:44;;;;;;;0.70;0.20;;;;;;;4.47;32.61;101500.97;5092767;28;20043;-64
2023/03/04 11:10:23;;;;;;;0.75;0.20;;;;;;;4.88;32.17;101458.06;5090864;28;20028;-63
2023/03/04 11:12:55;;;;;;;0.73;0.20;;;;;;;4.82;33.78;101495.97;5093101;28;20054;-64
2023/03/04 11:15:26;;;;;;;0.40;0.10;;;;;;;4.67;33.40;101500.94;5093023;28;20035;-65
2023/03/04 11:17:56;;;;;;;1.15;0.20;;;;;;;4.65;33.07;101489.56;5092950;28;20694;-65
2023/03/04 11:20:31;;;;;;;0.35;0.20;;;;;;;4.89;32.52;101500.56;5092791;28;20079;-65
2023/03/04 11:23:03;;;;;;;0.50;0.10;;;;;;;5.29;32.13;101493.28;5093382;28;20019;-65
2023/03/04 11:25:33;;;;;;;0.60;0.20;;;;;;;5.31;32.81;101491.31;5092356;28;20406;-65
2023/03/04 11:28:25;;;;;;;1.45;0.10;;;;;;;5.06;34.67;101482.13;5092685;28;20031;-65
2023/03/04 11:31:02;;;;;;;0.80;0.10;;;;;;;5.44;34.25;101483.78;5074462;28;20054;-64
2023/03/04 11:33:40;;;;;;;2.53;0.10;;;;;;;4.97;34.45;101502.53;5091750;28;20039;-65
2023/03/04 11:36:34;;;;;;;0.50;0.17;;;;;;;5.31;34.91;101484.13;5092410;28;20030;-65